Arriba, Colorado
Current Conditions -  °F | °C
As of 3:55 PM on Wednesday 26 Nov 2014 (Local Time) from KLIC Reporting Station
Clear Clear  
Wind Chill: 28°   Ceiling: Unl
Heat Index: 37°   Visibility: 10mi
Dew Point: 23°   Wind: 14mph
Humidity: 57%   Direction: 140°SE
Pressure: 30.21"   Gusts: NA
Location:  39.29°N, 103.28°W
Report Text: KLIC 262255Z AUTO 14012KT 10SM CLR 03/M05 A3021 RMK AO2 SLP246 T00281050
Loading
Personal Weather Stations






























Interactive Weather Map New forecast layout! Learn more

10-Day Weather Forecast

Advertisements
Track Severe Weather on mobile